createdAt,value
2023-02-27T00:07:06.652Z,8111.39648
2023-02-27T00:22:08.850Z,5810.27539
2023-02-27T00:37:11.046Z,3305.28564
2023-02-27T00:52:13.305Z,2192.67969
2023-02-27T01:07:15.585Z,1358.76733
2023-02-27T01:22:18.057Z,446.77744
2023-02-27T01:37:20.300Z,106.2723
2023-02-27T01:52:22.596Z,7.59088
2023-02-27T02:07:24.879Z,0
2023-02-27T02:22:27.285Z,0
2023-02-27T02:37:29.574Z,0
2023-02-27T02:52:31.948Z,0
2023-02-27T03:07:34.151Z,1.08441
2023-02-27T03:22:36.424Z,1.08441
2023-02-27T03:37:38.728Z,1.08441
2023-02-27T03:52:40.969Z,1.08441
2023-02-27T04:07:43.220Z,1.08441
2023-02-27T04:22:45.494Z,1.08441
2023-02-27T04:37:47.685Z,1.08441
2023-02-27T04:52:50.040Z,1.08441
2023-02-27T05:07:52.457Z,1.08441
2023-02-27T05:22:54.688Z,1.08441
2023-02-27T05:37:56.946Z,1.08441
2023-02-27T05:52:59.180Z,1.08441
2023-02-27T06:08:01.454Z,1.08441
2023-02-27T06:23:03.723Z,0
2023-02-27T06:38:05.987Z,0
2023-02-27T06:53:08.263Z,0
2023-02-27T07:08:10.564Z,0
2023-02-27T07:23:12.781Z,0
2023-02-27T07:38:15.001Z,0
2023-02-27T07:53:17.246Z,0
2023-02-27T08:08:19.459Z,0
2023-02-27T08:23:21.850Z,0
2023-02-27T08:38:26.305Z,0
2023-02-27T08:53:28.805Z,0
2023-02-27T09:08:31.460Z,0
2023-02-27T09:23:33.634Z,0
2023-02-27T09:38:35.927Z,0
2023-02-27T09:53:38.340Z,0
2023-02-27T10:08:40.548Z,0
2023-02-27T10:23:42.816Z,0
2023-02-27T10:38:45.107Z,0
2023-02-27T10:53:47.373Z,0
2023-02-27T11:08:50.317Z,0
2023-02-27T11:23:52.665Z,0
2023-02-27T11:38:55.084Z,0
2023-02-27T11:53:57.336Z,0
2023-02-27T12:08:59.513Z,0
2023-02-27T12:24:01.738Z,0
2023-02-27T12:39:03.922Z,0
2023-02-27T12:54:06.177Z,0
2023-02-27T13:09:08.405Z,0
2023-02-27T13:24:10.659Z,0
2023-02-27T13:39:12.874Z,0
2023-02-27T13:54:15.095Z,0
2023-02-27T14:09:17.333Z,3.25323
2023-02-27T14:24:19.563Z,46.62968
2023-02-27T14:39:21.814Z,336.16748
2023-02-27T14:54:24.147Z,938.01575
2023-02-27T15:09:26.509Z,1612.51953
2023-02-27T15:24:31.305Z,2629.69727
2023-02-27T15:39:35.704Z,4507.89746
2023-02-27T15:54:37.915Z,5499.04932
2023-02-27T16:09:40.123Z,7085.54297
2023-02-27T16:24:42.336Z,8189.47363
2023-02-27T16:39:44.673Z,9181.70996
2023-02-27T16:54:47.016Z,9878.98633
2023-02-27T17:09:49.319Z,12611.70312
2023-02-27T17:24:51.821Z,12901.24121
2023-02-27T17:39:54.044Z,14531.11133
2023-02-27T17:54:56.326Z,15642.63281
2023-02-27T18:09:58.648Z,16536.1875
2023-02-27T18:25:01.013Z,13233.07031
2023-02-27T18:40:03.242Z,16132.78613
2023-02-27T18:55:05.501Z,20473.68555
2023-02-27T19:10:07.782Z,22454.9043
2023-02-27T19:25:09.982Z,24718.07031
2023-02-27T19:40:12.168Z,26834.8418
2023-02-27T19:55:14.493Z,23335.44531
2023-02-27T20:10:16.788Z,13757.92578
2023-02-27T20:25:19.820Z,12991.24707
2023-02-27T20:40:22.166Z,13467.30371
2023-02-27T20:55:24.380Z,13926.00977
2023-02-27T21:10:26.532Z,15601.4248
2023-02-27T21:25:28.770Z,13995.41211
2023-02-27T21:40:31.218Z,12961.96777
2023-02-27T21:55:33.528Z,12356.86621
2023-02-27T22:10:35.833Z,13537.79004
2023-02-27T22:25:38.082Z,14937.76562
2023-02-27T22:40:40.317Z,12968.47461
2023-02-27T22:55:42.611Z,9584.02637
2023-02-27T23:10:44.864Z,9949.47363
2023-02-27T23:25:47.293Z,8278.39551
2023-02-27T23:40:49.482Z,4974.19434
2023-02-27T23:55:51.675Z,4062.20459
